sensor_id;sensor_type;location;lat;lon;timestamp;P1;durP1;ratioP1;P2;durP2;ratioP2
20593;SDS011;10455;48.732;10.266;2022-09-09T00:00:53;4.93;;;3.57;;
20593;SDS011;10455;48.732;10.266;2022-09-09T00:06:03;3.80;;;3.43;;
20593;SDS011;10455;48.732;10.266;2022-09-09T00:11:11;4.07;;;3.50;;
20593;SDS011;10455;48.732;10.266;2022-09-09T00:16:19;6.67;;;3.80;;
20593;SDS011;10455;48.732;10.266;2022-09-09T00:21:25;4.77;;;3.60;;
20593;SDS011;10455;48.732;10.266;2022-09-09T00:26:34;6.97;;;3.80;;
20593;SDS011;10455;48.732;10.266;2022-09-09T00:31:42;4.50;;;3.67;;
20593;SDS011;10455;48.732;10.266;2022-09-09T00:36:44;6.37;;;4.00;;
20593;SDS011;10455;48.732;10.266;2022-09-09T00:41:51;4.57;;;3.93;;
20593;SDS011;10455;48.732;10.266;2022-09-09T00:47:07;7.37;;;4.10;;
20593;SDS011;10455;48.732;10.266;2022-09-09T00:52:21;4.67;;;3.27;;
20593;SDS011;10455;48.732;10.266;2022-09-09T00:57:32;5.07;;;3.43;;
20593;SDS011;10455;48.732;10.266;2022-09-09T01:02:39;7.57;;;3.37;;
20593;SDS011;10455;48.732;10.266;2022-09-09T01:07:49;3.93;;;3.13;;
20593;SDS011;10455;48.732;10.266;2022-09-09T01:12:52;8.37;;;3.97;;
20593;SDS011;10455;48.732;10.266;2022-09-09T01:18:00;4.93;;;3.47;;
20593;SDS011;10455;48.732;10.266;2022-09-09T01:23:13;5.43;;;3.27;;
20593;SDS011;10455;48.732;10.266;2022-09-09T01:28:30;5.17;;;3.33;;
20593;SDS011;10455;48.732;10.266;2022-09-09T01:33:35;5.60;;;3.30;;
20593;SDS011;10455;48.732;10.266;2022-09-09T01:38:37;7.67;;;3.43;;
20593;SDS011;10455;48.732;10.266;2022-09-09T01:43:41;6.13;;;2.97;;
20593;SDS011;10455;48.732;10.266;2022-09-09T01:48:43;5.17;;;3.03;;
20593;SDS011;10455;48.732;10.266;2022-09-09T01:53:47;4.30;;;3.90;;
20593;SDS011;10455;48.732;10.266;2022-09-09T01:58:57;4.93;;;3.57;;
20593;SDS011;10455;48.732;10.266;2022-09-09T02:04:14;6.37;;;3.83;;
20593;SDS011;10455;48.732;10.266;2022-09-09T02:09:29;5.90;;;4.30;;
20593;SDS011;10455;48.732;10.266;2022-09-09T02:14:34;5.13;;;4.47;;
20593;SDS011;10455;48.732;10.266;2022-09-09T02:19:44;6.30;;;4.03;;
20593;SDS011;10455;48.732;10.266;2022-09-09T02:24:50;5.97;;;3.80;;
20593;SDS011;10455;48.732;10.266;2022-09-09T02:29:57;4.47;;;3.73;;
20593;SDS011;10455;48.732;10.266;2022-09-09T02:35:03;4.73;;;4.13;;
20593;SDS011;10455;48.732;10.266;2022-09-09T02:40:11;4.93;;;3.50;;
20593;SDS011;10455;48.732;10.266;2022-09-09T02:45:17;5.23;;;4.20;;
20593;SDS011;10455;48.732;10.266;2022-09-09T02:50:22;5.33;;;4.17;;
20593;SDS011;10455;48.732;10.266;2022-09-09T02:55:32;6.37;;;4.07;;
20593;SDS011;10455;48.732;10.266;2022-09-09T03:00:41;9.70;;;4.67;;
20593;SDS011;10455;48.732;10.266;2022-09-09T03:05:44;4.83;;;4.30;;
20593;SDS011;10455;48.732;10.266;2022-09-09T03:10:47;4.70;;;4.20;;
20593;SDS011;10455;48.732;10.266;2022-09-09T03:15:51;7.60;;;4.27;;
20593;SDS011;10455;48.732;10.266;2022-09-09T03:20:53;7.17;;;4.50;;
20593;SDS011;10455;48.732;10.266;2022-09-09T03:25:56;10.70;;;4.73;;
20593;SDS011;10455;48.732;10.266;2022-09-09T03:31:03;6.90;;;4.10;;
20593;SDS011;10455;48.732;10.266;2022-09-09T03:36:10;7.13;;;4.73;;
20593;SDS011;10455;48.732;10.266;2022-09-09T03:41:12;4.97;;;3.60;;
20593;SDS011;10455;48.732;10.266;2022-09-09T03:46:16;4.33;;;3.60;;
20593;SDS011;10455;48.732;10.266;2022-09-09T03:51:18;6.70;;;4.60;;
20593;SDS011;10455;48.732;10.266;2022-09-09T03:56:21;6.07;;;4.83;;
20593;SDS011;10455;48.732;10.266;2022-09-09T04:01:25;5.47;;;4.23;;
20593;SDS011;10455;48.732;10.266;2022-09-09T04:06:28;5.33;;;3.63;;
20593;SDS011;10455;48.732;10.266;2022-09-09T04:11:31;4.53;;;3.83;;
20593;SDS011;10455;48.732;10.266;2022-09-09T04:16:35;6.47;;;4.43;;
20593;SDS011;10455;48.732;10.266;2022-09-09T04:21:38;7.43;;;4.53;;
20593;SDS011;10455;48.732;10.266;2022-09-09T04:26:40;5.07;;;4.57;;
20593;SDS011;10455;48.732;10.266;2022-09-09T04:31:44;9.00;;;5.97;;
20593;SDS011;10455;48.732;10.266;2022-09-09T04:36:46;7.07;;;4.73;;
20593;SDS011;10455;48.732;10.266;2022-09-09T04:41:48;7.33;;;4.87;;
20593;SDS011;10455;48.732;10.266;2022-09-09T04:46:52;10.83;;;5.80;;
20593;SDS011;10455;48.732;10.266;2022-09-09T04:51:54;15.63;;;7.97;;
20593;SDS011;10455;48.732;10.266;2022-09-09T04:56:56;15.97;;;8.27;;
20593;SDS011;10455;48.732;10.266;2022-09-09T05:02:00;8.40;;;6.60;;
20593;SDS011;10455;48.732;10.266;2022-09-09T05:07:03;11.93;;;7.10;;
20593;SDS011;10455;48.732;10.266;2022-09-09T05:12:05;13.13;;;7.07;;
20593;SDS011;10455;48.732;10.266;2022-09-09T05:17:09;11.50;;;6.07;;
20593;SDS011;10455;48.732;10.266;2022-09-09T05:22:12;8.53;;;6.47;;
20593;SDS011;10455;48.732;10.266;2022-09-09T05:27:14;18.27;;;9.50;;
20593;SDS011;10455;48.732;10.266;2022-09-09T05:32:17;7.87;;;6.30;;
20593;SDS011;10455;48.732;10.266;2022-09-09T05:37:19;10.50;;;7.43;;
20593;SDS011;10455;48.732;10.266;2022-09-09T05:42:21;11.00;;;7.70;;
20593;SDS011;10455;48.732;10.266;2022-09-09T05:47:25;12.53;;;8.40;;
20593;SDS011;10455;48.732;10.266;2022-09-09T05:52:27;10.70;;;7.60;;
20593;SDS011;10455;48.732;10.266;2022-09-09T05:57:30;9.67;;;7.43;;
20593;SDS011;10455;48.732;10.266;2022-09-09T06:02:33;13.43;;;9.97;;
20593;SDS011;10455;48.732;10.266;2022-09-09T06:07:38;12.70;;;9.07;;
20593;SDS011;10455;48.732;10.266;2022-09-09T06:12:42;11.47;;;8.30;;
20593;SDS011;10455;48.732;10.266;2022-09-09T06:17:45;12.57;;;9.43;;
20593;SDS011;10455;48.732;10.266;2022-09-09T06:22:49;9.20;;;8.27;;
20593;SDS011;10455;48.732;10.266;2022-09-09T06:27:51;8.50;;;7.17;;
20593;SDS011;10455;48.732;10.266;2022-09-09T06:32:56;9.73;;;7.30;;
20593;SDS011;10455;48.732;10.266;2022-09-09T06:37:58;10.60;;;7.03;;
20593;SDS011;10455;48.732;10.266;2022-09-09T06:43:00;9.00;;;5.77;;
20593;SDS011;10455;48.732;10.266;2022-09-09T06:48:04;8.63;;;4.80;;
20593;SDS011;10455;48.732;10.266;2022-09-09T06:53:06;9.13;;;5.05;;
20593;SDS011;10455;48.732;10.266;2022-09-09T06:58:08;5.10;;;3.22;;
20593;SDS011;10455;48.732;10.266;2022-09-09T07:03:12;3.42;;;2.63;;
20593;SDS011;10455;48.732;10.266;2022-09-09T07:08:14;4.10;;;1.70;;
20593;SDS011;10455;48.732;10.266;2022-09-09T07:13:17;2.88;;;1.70;;
20593;SDS011;10455;48.732;10.266;2022-09-09T07:18:22;2.72;;;1.48;;
20593;SDS011;10455;48.732;10.266;2022-09-09T07:23:24;2.85;;;1.45;;
20593;SDS011;10455;48.732;10.266;2022-09-09T07:28:27;4.13;;;1.70;;
20593;SDS011;10455;48.732;10.266;2022-09-09T07:33:33;4.32;;;1.70;;
20593;SDS011;10455;48.732;10.266;2022-09-09T07:38:39;3.15;;;1.88;;
20593;SDS011;10455;48.732;10.266;2022-09-09T07:43:44;3.08;;;2.00;;
20593;SDS011;10455;48.732;10.266;2022-09-09T07:48:49;2.28;;;1.40;;
20593;SDS011;10455;48.732;10.266;2022-09-09T07:53:54;2.63;;;1.75;;
20593;SDS011;10455;48.732;10.266;2022-09-09T07:58:58;2.70;;;1.67;;
20593;SDS011;10455;48.732;10.266;2022-09-09T08:04:03;3.00;;;1.48;;
20593;SDS011;10455;48.732;10.266;2022-09-09T08:09:07;3.28;;;1.80;;
20593;SDS011;10455;48.732;10.266;2022-09-09T08:14:10;5.03;;;1.95;;
20593;SDS011;10455;48.732;10.266;2022-09-09T08:19:15;2.00;;;1.60;;
20593;SDS011;10455;48.732;10.266;2022-09-09T08:24:17;2.70;;;1.55;;
20593;SDS011;10455;48.732;10.266;2022-09-09T08:29:20;3.67;;;1.55;;
20593;SDS011;10455;48.732;10.266;2022-09-09T08:34:24;5.18;;;1.92;;
20593;SDS011;10455;48.732;10.266;2022-09-09T08:39:28;3.38;;;1.60;;
20593;SDS011;10455;48.732;10.266;2022-09-09T08:44:34;4.20;;;1.65;;
20593;SDS011;10455;48.732;10.266;2022-09-09T08:49:50;2.35;;;1.65;;
20593;SDS011;10455;48.732;10.266;2022-09-09T08:55:12;3.08;;;1.77;;
20593;SDS011;10455;48.732;10.266;2022-09-09T09:00:22;3.50;;;1.60;;
20593;SDS011;10455;48.732;10.266;2022-09-09T09:05:35;3.35;;;1.80;;
20593;SDS011;10455;48.732;10.266;2022-09-09T09:10:46;1.58;;;1.35;;
20593;SDS011;10455;48.732;10.266;2022-09-09T09:15:52;4.18;;;1.70;;
20593;SDS011;10455;48.732;10.266;2022-09-09T09:21:02;2.85;;;1.70;;
20593;SDS011;10455;48.732;10.266;2022-09-09T09:26:10;2.90;;;1.60;;
20593;SDS011;10455;48.732;10.266;2022-09-09T09:31:13;3.30;;;1.70;;
20593;SDS011;10455;48.732;10.266;2022-09-09T09:36:16;4.95;;;1.88;;
20593;SDS011;10455;48.732;10.266;2022-09-09T09:41:28;2.85;;;1.38;;
20593;SDS011;10455;48.732;10.266;2022-09-09T09:46:31;2.33;;;1.45;;
20593;SDS011;10455;48.732;10.266;2022-09-09T09:51:35;3.55;;;1.77;;
20593;SDS011;10455;48.732;10.266;2022-09-09T09:56:37;2.63;;;1.50;;
20593;SDS011;10455;48.732;10.266;2022-09-09T10:01:40;5.43;;;1.73;;
20593;SDS011;10455;48.732;10.266;2022-09-09T10:06:44;3.00;;;1.48;;
20593;SDS011;10455;48.732;10.266;2022-09-09T10:11:46;3.22;;;1.55;;
20593;SDS011;10455;48.732;10.266;2022-09-09T10:17:01;4.10;;;1.73;;
20593;SDS011;10455;48.732;10.266;2022-09-09T10:22:16;4.03;;;1.73;;
20593;SDS011;10455;48.732;10.266;2022-09-09T10:27:29;3.47;;;1.60;;
20593;SDS011;10455;48.732;10.266;2022-09-09T10:32:40;4.75;;;1.58;;
20593;SDS011;10455;48.732;10.266;2022-09-09T10:37:52;3.30;;;1.50;;
20593;SDS011;10455;48.732;10.266;2022-09-09T10:43:13;2.72;;;1.50;;
20593;SDS011;10455;48.732;10.266;2022-09-09T10:48:31;4.85;;;1.55;;
20593;SDS011;10455;48.732;10.266;2022-09-09T10:54:04;3.92;;;1.50;;
20593;SDS011;10455;48.732;10.266;2022-09-09T10:59:19;3.22;;;1.45;;
20593;SDS011;10455;48.732;10.266;2022-09-09T11:04:27;3.08;;;1.73;;
20593;SDS011;10455;48.732;10.266;2022-09-09T11:09:37;2.85;;;1.27;;
20593;SDS011;10455;48.732;10.266;2022-09-09T11:14:43;2.95;;;1.40;;
20593;SDS011;10455;48.732;10.266;2022-09-09T11:19:46;2.30;;;1.30;;
20593;SDS011;10455;48.732;10.266;2022-09-09T11:24:50;3.67;;;1.50;;
20593;SDS011;10455;48.732;10.266;2022-09-09T11:30:11;3.15;;;1.42;;
20593;SDS011;10455;48.732;10.266;2022-09-09T11:35:26;4.68;;;1.38;;
20593;SDS011;10455;48.732;10.266;2022-09-09T11:40:38;3.28;;;1.70;;
20593;SDS011;10455;48.732;10.266;2022-09-09T11:45:41;3.45;;;1.63;;
20593;SDS011;10455;48.732;10.266;2022-09-09T11:50:58;3.30;;;1.42;;
20593;SDS011;10455;48.732;10.266;2022-09-09T11:56:13;3.80;;;1.60;;
20593;SDS011;10455;48.732;10.266;2022-09-09T12:01:28;2.53;;;1.35;;
20593;SDS011;10455;48.732;10.266;2022-09-09T12:06:43;3.40;;;1.40;;
20593;SDS011;10455;48.732;10.266;2022-09-09T12:11:48;3.38;;;1.40;;
20593;SDS011;10455;48.732;10.266;2022-09-09T12:16:51;1.75;;;1.10;;
20593;SDS011;10455;48.732;10.266;2022-09-09T12:21:54;3.38;;;1.65;;
20593;SDS011;10455;48.732;10.266;2022-09-09T12:27:07;3.63;;;1.50;;
20593;SDS011;10455;48.732;10.266;2022-09-09T12:32:19;2.83;;;1.40;;
20593;SDS011;10455;48.732;10.266;2022-09-09T12:37:26;3.20;;;1.38;;
20593;SDS011;10455;48.732;10.266;2022-09-09T12:42:39;2.47;;;1.23;;
20593;SDS011;10455;48.732;10.266;2022-09-09T12:47:43;1.80;;;1.38;;
20593;SDS011;10455;48.732;10.266;2022-09-09T12:52:49;2.25;;;1.30;;
20593;SDS011;10455;48.732;10.266;2022-09-09T12:57:54;1.85;;;1.10;;
20593;SDS011;10455;48.732;10.266;2022-09-09T13:02:58;1.50;;;0.90;;
20593;SDS011;10455;48.732;10.266;2022-09-09T13:08:02;0.80;;;0.80;;
20593;SDS011;10455;48.732;10.266;2022-09-09T13:13:12;2.35;;;1.23;;
20593;SDS011;10455;48.732;10.266;2022-09-09T13:18:15;1.67;;;1.10;;
20593;SDS011;10455;48.732;10.266;2022-09-09T13:23:21;2.25;;;1.10;;
20593;SDS011;10455;48.732;10.266;2022-09-09T13:28:27;3.42;;;1.48;;
20593;SDS011;10455;48.732;10.266;2022-09-09T13:33:32;2.80;;;1.30;;
20593;SDS011;10455;48.732;10.266;2022-09-09T13:38:37;1.58;;;1.00;;
20593;SDS011;10455;48.732;10.266;2022-09-09T13:43:43;3.53;;;1.33;;
20593;SDS011;10455;48.732;10.266;2022-09-09T13:48:53;1.85;;;1.00;;
20593;SDS011;10455;48.732;10.266;2022-09-09T13:53:56;2.65;;;1.65;;
20593;SDS011;10455;48.732;10.266;2022-09-09T13:59:00;2.85;;;1.50;;
20593;SDS011;10455;48.732;10.266;2022-09-09T14:04:03;2.58;;;1.40;;
20593;SDS011;10455;48.732;10.266;2022-09-09T14:09:07;4.57;;;1.48;;
20593;SDS011;10455;48.732;10.266;2022-09-09T14:14:13;3.22;;;1.50;;
20593;SDS011;10455;48.732;10.266;2022-09-09T14:19:15;2.40;;;1.30;;
20593;SDS011;10455;48.732;10.266;2022-09-09T14:24:18;3.40;;;1.20;;
20593;SDS011;10455;48.732;10.266;2022-09-09T14:29:22;1.27;;;1.15;;
20593;SDS011;10455;48.732;10.266;2022-09-09T14:34:25;3.20;;;1.38;;
20593;SDS011;10455;48.732;10.266;2022-09-09T14:39:27;3.15;;;1.48;;
20593;SDS011;10455;48.732;10.266;2022-09-09T14:44:31;2.05;;;1.20;;
20593;SDS011;10455;48.732;10.266;2022-09-09T14:49:33;4.28;;;1.20;;
20593;SDS011;10455;48.732;10.266;2022-09-09T14:54:35;3.45;;;1.58;;
20593;SDS011;10455;48.732;10.266;2022-09-09T14:59:39;2.75;;;1.00;;
20593;SDS011;10455;48.732;10.266;2022-09-09T15:04:41;3.30;;;1.25;;
20593;SDS011;10455;48.732;10.266;2022-09-09T15:09:44;2.00;;;1.08;;
20593;SDS011;10455;48.732;10.266;2022-09-09T15:14:50;3.47;;;1.98;;
20593;SDS011;10455;48.732;10.266;2022-09-09T15:19:53;4.95;;;2.05;;
20593;SDS011;10455;48.732;10.266;2022-09-09T15:24:56;4.28;;;1.98;;
20593;SDS011;10455;48.732;10.266;2022-09-09T15:29:59;7.35;;;3.75;;
20593;SDS011;10455;48.732;10.266;2022-09-09T15:35:03;2.33;;;1.30;;
20593;SDS011;10455;48.732;10.266;2022-09-09T15:40:06;2.35;;;1.38;;
20593;SDS011;10455;48.732;10.266;2022-09-09T15:45:10;3.17;;;1.10;;
20593;SDS011;10455;48.732;10.266;2022-09-09T15:50:13;3.08;;;1.30;;
20593;SDS011;10455;48.732;10.266;2022-09-09T15:55:15;1.90;;;1.10;;
20593;SDS011;10455;48.732;10.266;2022-09-09T16:00:19;3.35;;;1.42;;
20593;SDS011;10455;48.732;10.266;2022-09-09T16:05:21;2.85;;;1.20;;
20593;SDS011;10455;48.732;10.266;2022-09-09T16:10:24;3.17;;;1.20;;
20593;SDS011;10455;48.732;10.266;2022-09-09T16:15:27;3.15;;;1.20;;
20593;SDS011;10455;48.732;10.266;2022-09-09T16:20:30;2.53;;;1.38;;
20593;SDS011;10455;48.732;10.266;2022-09-09T16:25:32;2.28;;;1.23;;
20593;SDS011;10455;48.732;10.266;2022-09-09T16:30:35;2.42;;;1.17;;
20593;SDS011;10455;48.732;10.266;2022-09-09T16:35:39;2.65;;;1.23;;
20593;SDS011;10455;48.732;10.266;2022-09-09T16:40:41;3.15;;;1.30;;
20593;SDS011;10455;48.732;10.266;2022-09-09T16:45:45;3.53;;;1.60;;
20593;SDS011;10455;48.732;10.266;2022-09-09T16:50:47;2.25;;;1.23;;
20593;SDS011;10455;48.732;10.266;2022-09-09T16:55:49;3.55;;;1.38;;
20593;SDS011;10455;48.732;10.266;2022-09-09T17:00:52;3.25;;;1.50;;
20593;SDS011;10455;48.732;10.266;2022-09-09T17:05:59;3.20;;;1.20;;
20593;SDS011;10455;48.732;10.266;2022-09-09T17:11:02;3.30;;;1.20;;
20593;SDS011;10455;48.732;10.266;2022-09-09T17:16:06;1.77;;;1.20;;
20593;SDS011;10455;48.732;10.266;2022-09-09T17:21:09;2.22;;;1.20;;
20593;SDS011;10455;48.732;10.266;2022-09-09T17:26:15;4.10;;;1.40;;
20593;SDS011;10455;48.732;10.266;2022-09-09T17:31:20;3.78;;;1.08;;
20593;SDS011;10455;48.732;10.266;2022-09-09T17:36:24;2.13;;;1.20;;
20593;SDS011;10455;48.732;10.266;2022-09-09T17:41:27;2.42;;;1.23;;
20593;SDS011;10455;48.732;10.266;2022-09-09T17:46:33;2.97;;;1.40;;
20593;SDS011;10455;48.732;10.266;2022-09-09T17:51:36;3.05;;;1.40;;
20593;SDS011;10455;48.732;10.266;2022-09-09T17:56:41;1.98;;;1.30;;
20593;SDS011;10455;48.732;10.266;2022-09-09T18:01:46;1.83;;;1.30;;
20593;SDS011;10455;48.732;10.266;2022-09-09T18:06:50;3.13;;;1.40;;
20593;SDS011;10455;48.732;10.266;2022-09-09T18:11:54;3.40;;;1.55;;
20593;SDS011;10455;48.732;10.266;2022-09-09T18:17:00;3.13;;;1.50;;
20593;SDS011;10455;48.732;10.266;2022-09-09T18:22:04;3.25;;;1.38;;
20593;SDS011;10455;48.732;10.266;2022-09-09T18:27:06;2.40;;;1.25;;
20593;SDS011;10455;48.732;10.266;2022-09-09T18:32:10;2.60;;;1.40;;
20593;SDS011;10455;48.732;10.266;2022-09-09T18:37:14;3.50;;;1.50;;
20593;SDS011;10455;48.732;10.266;2022-09-09T18:42:16;8.55;;;2.33;;
20593;SDS011;10455;48.732;10.266;2022-09-09T18:47:20;6.20;;;1.70;;
20593;SDS011;10455;48.732;10.266;2022-09-09T18:52:23;9.13;;;2.13;;
20593;SDS011;10455;48.732;10.266;2022-09-09T18:57:26;6.40;;;1.87;;
20593;SDS011;10455;48.732;10.266;2022-09-09T19:02:31;6.40;;;1.90;;
20593;SDS011;10455;48.732;10.266;2022-09-09T19:07:33;1.60;;;1.40;;
20593;SDS011;10455;48.732;10.266;2022-09-09T19:12:35;5.23;;;1.70;;
20593;SDS011;10455;48.732;10.266;2022-09-09T19:17:39;6.03;;;1.80;;
20593;SDS011;10455;48.732;10.266;2022-09-09T19:22:41;5.07;;;1.70;;
20593;SDS011;10455;48.732;10.266;2022-09-09T19:27:43;3.47;;;1.60;;
20593;SDS011;10455;48.732;10.266;2022-09-09T19:32:47;4.27;;;1.77;;
20593;SDS011;10455;48.732;10.266;2022-09-09T19:37:49;2.47;;;1.50;;
20593;SDS011;10455;48.732;10.266;2022-09-09T19:42:51;5.20;;;1.90;;
20593;SDS011;10455;48.732;10.266;2022-09-09T19:47:55;3.60;;;1.57;;
20593;SDS011;10455;48.732;10.266;2022-09-09T19:52:57;2.67;;;1.73;;
20593;SDS011;10455;48.732;10.266;2022-09-09T19:57:59;3.10;;;1.63;;
20593;SDS011;10455;48.732;10.266;2022-09-09T20:03:03;7.13;;;1.40;;
20593;SDS011;10455;48.732;10.266;2022-09-09T20:08:05;3.47;;;1.50;;
20593;SDS011;10455;48.732;10.266;2022-09-09T20:13:07;4.90;;;1.30;;
20593;SDS011;10455;48.732;10.266;2022-09-09T20:18:11;4.57;;;1.97;;
20593;SDS011;10455;48.732;10.266;2022-09-09T20:23:13;2.10;;;1.40;;
20593;SDS011;10455;48.732;10.266;2022-09-09T20:28:17;3.37;;;1.83;;
20593;SDS011;10455;48.732;10.266;2022-09-09T20:33:21;3.17;;;1.60;;
20593;SDS011;10455;48.732;10.266;2022-09-09T20:38:24;5.20;;;1.80;;
20593;SDS011;10455;48.732;10.266;2022-09-09T20:43:26;4.37;;;1.60;;
20593;SDS011;10455;48.732;10.266;2022-09-09T20:48:32;2.67;;;1.50;;
20593;SDS011;10455;48.732;10.266;2022-09-09T20:53:34;4.43;;;1.60;;
20593;SDS011;10455;48.732;10.266;2022-09-09T20:58:37;2.87;;;1.70;;
20593;SDS011;10455;48.732;10.266;2022-09-09T21:03:40;3.07;;;1.50;;
20593;SDS011;10455;48.732;10.266;2022-09-09T21:08:43;4.50;;;1.63;;
20593;SDS011;10455;48.732;10.266;2022-09-09T21:13:46;5.70;;;1.90;;
20593;SDS011;10455;48.732;10.266;2022-09-09T21:18:49;5.43;;;1.60;;
20593;SDS011;10455;48.732;10.266;2022-09-09T21:23:53;2.63;;;1.53;;
20593;SDS011;10455;48.732;10.266;2022-09-09T21:28:56;3.70;;;1.70;;
20593;SDS011;10455;48.732;10.266;2022-09-09T21:33:59;1.97;;;1.80;;
20593;SDS011;10455;48.732;10.266;2022-09-09T21:39:01;4.47;;;1.80;;
20593;SDS011;10455;48.732;10.266;2022-09-09T21:44:04;2.57;;;1.60;;
20593;SDS011;10455;48.732;10.266;2022-09-09T21:49:09;6.37;;;2.10;;
20593;SDS011;10455;48.732;10.266;2022-09-09T21:54:11;5.47;;;1.73;;
20593;SDS011;10455;48.732;10.266;2022-09-09T21:59:13;3.40;;;2.03;;
20593;SDS011;10455;48.732;10.266;2022-09-09T22:04:17;2.30;;;1.77;;
20593;SDS011;10455;48.732;10.266;2022-09-09T22:09:19;2.83;;;2.00;;
20593;SDS011;10455;48.732;10.266;2022-09-09T22:14:21;2.23;;;2.03;;
20593;SDS011;10455;48.732;10.266;2022-09-09T22:19:25;3.13;;;1.90;;
20593;SDS011;10455;48.732;10.266;2022-09-09T22:24:27;4.40;;;1.83;;
20593;SDS011;10455;48.732;10.266;2022-09-09T22:29:29;6.27;;;2.07;;
20593;SDS011;10455;48.732;10.266;2022-09-09T22:34:33;4.20;;;1.80;;
20593;SDS011;10455;48.732;10.266;2022-09-09T22:39:35;2.27;;;1.60;;
20593;SDS011;10455;48.732;10.266;2022-09-09T22:44:37;6.43;;;1.90;;
20593;SDS011;10455;48.732;10.266;2022-09-09T22:49:40;2.00;;;1.50;;
20593;SDS011;10455;48.732;10.266;2022-09-09T22:54:42;2.13;;;1.80;;
20593;SDS011;10455;48.732;10.266;2022-09-09T22:59:45;5.43;;;1.77;;
20593;SDS011;10455;48.732;10.266;2022-09-09T23:04:49;4.90;;;1.63;;
20593;SDS011;10455;48.732;10.266;2022-09-09T23:09:51;2.27;;;1.70;;
20593;SDS011;10455;48.732;10.266;2022-09-09T23:14:53;7.63;;;1.87;;
20593;SDS011;10455;48.732;10.266;2022-09-09T23:19:57;3.50;;;2.10;;
20593;SDS011;10455;48.732;10.266;2022-09-09T23:24:59;4.60;;;1.80;;
20593;SDS011;10455;48.732;10.266;2022-09-09T23:30:02;3.90;;;1.70;;
20593;SDS011;10455;48.732;10.266;2022-09-09T23:35:07;4.80;;;2.00;;
20593;SDS011;10455;48.732;10.266;2022-09-09T23:40:09;2.33;;;1.90;;
20593;SDS011;10455;48.732;10.266;2022-09-09T23:45:12;5.83;;;2.00;;
20593;SDS011;10455;48.732;10.266;2022-09-09T23:50:16;5.27;;;2.00;;
20593;SDS011;10455;48.732;10.266;2022-09-09T23:55:18;3.77;;;2.00;;
